EFKE/KEM METAR and TAF weather

Enter ICAO airport designator
Station Type Date Time Source
EFKE METAR 2018/04/26 14:50 UTC NOAA

EFKE 261450Z AUTO 26005KT 220V310 CAVOK 07/01 Q0995


Station Type Date Time Source
EFKE Decoded METAR 2018/04/26 14:50 UTC NOAA

Kemi, Finland (EFKE) 65-47N 024-35E
Apr 26, 2018 - 10:50 AM EDT / 2018.04.26 1450 UTC
Wind: from the W (260 degrees) at 6 MPH (5 KT) (direction variable):0
Visibility: greater than 7 mile(s):0
Temperature: 44 F (7 C)
Dew Point: 33 F (1 C)
Relative Humidity: 65%
Pressure (altimeter): 29.38 in. Hg (0995 hPa)
ob: EFKE 261450Z AUTO 26005KT 220V310 CAVOK 07/01 Q0995
cycle: 15

Station Type Date Time Source
EFKE TAF 2015/01/12 15:42 UTC NOAA

TAF EFKE 121433Z 1215/1312 03006KT CAVOK
BECMG 1300/1302 9999 BKN015
FM130400 07008KT 9999 SCT014 BKN018
TEMPO 1304/1312 7000 -SN


Example: see airport list